sensor_id;sensor_type;location;lat;lon;timestamp;pressure;altitude;pressure_sealevel;temperature;humidity
69219;BME280;56232;53.384;-2.732;2023-02-28T00:01:51;103203.57;;;5.93;39.02
69219;BME280;56232;53.384;-2.732;2023-02-28T00:04:17;103204.59;;;6.24;39.27
69219;BME280;56232;53.384;-2.732;2023-02-28T00:06:42;103201.74;;;5.06;39.28
69219;BME280;56232;53.384;-2.732;2023-02-28T00:09:08;103203.58;;;4.95;39.31
69219;BME280;56232;53.384;-2.732;2023-02-28T00:11:34;103202.85;;;5.35;39.42
69219;BME280;56232;53.384;-2.732;2023-02-28T00:13:59;103206.90;;;5.96;39.62
69219;BME280;56232;53.384;-2.732;2023-02-28T00:16:25;103209.27;;;5.35;39.57
69219;BME280;56232;53.384;-2.732;2023-02-28T00:18:50;103208.73;;;5.09;39.79
69219;BME280;56232;53.384;-2.732;2023-02-28T00:21:18;103211.28;;;5.46;40.12
69219;BME280;56232;53.384;-2.732;2023-02-28T00:23:42;103215.74;;;4.81;40.17
69219;BME280;56232;53.384;-2.732;2023-02-28T00:26:08;103218.87;;;4.11;40.33
69219;BME280;56232;53.384;-2.732;2023-02-28T00:28:34;103219.64;;;5.26;40.45
69219;BME280;56232;53.384;-2.732;2023-02-28T00:30:59;103216.56;;;5.65;40.36
69219;BME280;56232;53.384;-2.732;2023-02-28T00:33:25;103214.61;;;5.02;40.45
69219;BME280;56232;53.384;-2.732;2023-02-28T00:35:50;103215.46;;;4.94;40.53
69219;BME280;56232;53.384;-2.732;2023-02-28T00:38:16;103216.40;;;4.88;40.62
69219;BME280;56232;53.384;-2.732;2023-02-28T00:40:41;103217.03;;;4.91;40.72
69219;BME280;56232;53.384;-2.732;2023-02-28T00:43:07;103218.35;;;4.90;40.66
69219;BME280;56232;53.384;-2.732;2023-02-28T00:45:33;103211.47;;;4.69;40.99
69219;BME280;56232;53.384;-2.732;2023-02-28T00:47:59;103213.86;;;5.85;40.79
69219;BME280;56232;53.384;-2.732;2023-02-28T00:50:24;103216.62;;;4.68;40.77
69219;BME280;56232;53.384;-2.732;2023-02-28T00:52:50;103213.67;;;4.68;40.82
69219;BME280;56232;53.384;-2.732;2023-02-28T00:55:16;103215.27;;;4.20;40.74
69219;BME280;56232;53.384;-2.732;2023-02-28T00:57:41;103220.35;;;4.87;40.72
69219;BME280;56232;53.384;-2.732;2023-02-28T01:00:08;103220.55;;;4.92;40.54
69219;BME280;56232;53.384;-2.732;2023-02-28T01:02:32;103222.18;;;5.38;40.41
69219;BME280;56232;53.384;-2.732;2023-02-28T01:04:59;103220.84;;;5.35;40.55
69219;BME280;56232;53.384;-2.732;2023-02-28T01:07:23;103221.49;;;4.95;40.36
69219;BME280;56232;53.384;-2.732;2023-02-28T01:09:49;103219.62;;;4.85;40.49
69219;BME280;56232;53.384;-2.732;2023-02-28T01:12:15;103215.80;;;4.32;40.37
69219;BME280;56232;53.384;-2.732;2023-02-28T01:14:41;103212.84;;;4.37;40.29
69219;BME280;56232;53.384;-2.732;2023-02-28T01:17:06;103215.34;;;4.87;40.39
69219;BME280;56232;53.384;-2.732;2023-02-28T01:19:32;103219.12;;;4.74;40.55
69219;BME280;56232;53.384;-2.732;2023-02-28T01:22:00;103223.70;;;4.69;40.70
69219;BME280;56232;53.384;-2.732;2023-02-28T01:24:23;103223.75;;;4.68;40.55
69219;BME280;56232;53.384;-2.732;2023-02-28T01:26:49;103223.67;;;4.84;40.56
69219;BME280;56232;53.384;-2.732;2023-02-28T01:29:15;103230.51;;;4.87;40.59
69219;BME280;56232;53.384;-2.732;2023-02-28T01:31:40;103226.42;;;4.89;40.53
69219;BME280;56232;53.384;-2.732;2023-02-28T01:34:06;103230.21;;;4.86;40.48
69219;BME280;56232;53.384;-2.732;2023-02-28T01:36:32;103224.65;;;4.89;40.23
69219;BME280;56232;53.384;-2.732;2023-02-28T01:38:59;103225.83;;;4.70;40.43
69219;BME280;56232;53.384;-2.732;2023-02-28T01:41:26;103226.46;;;5.30;40.35
69219;BME280;56232;53.384;-2.732;2023-02-28T01:43:55;103228.25;;;4.94;40.36
69219;BME280;56232;53.384;-2.732;2023-02-28T01:46:19;103229.84;;;5.18;40.31
69219;BME280;56232;53.384;-2.732;2023-02-28T01:48:43;103228.92;;;5.20;40.01
69219;BME280;56232;53.384;-2.732;2023-02-28T01:51:09;103226.84;;;4.55;40.13
69219;BME280;56232;53.384;-2.732;2023-02-28T01:53:34;103222.45;;;4.64;39.72
69219;BME280;56232;53.384;-2.732;2023-02-28T01:55:59;103219.81;;;5.03;40.09
69219;BME280;56232;53.384;-2.732;2023-02-28T01:58:24;103222.50;;;4.47;40.02
69219;BME280;56232;53.384;-2.732;2023-02-28T02:00:49;103223.28;;;4.43;40.14
69219;BME280;56232;53.384;-2.732;2023-02-28T02:03:16;103229.94;;;5.20;40.17
69219;BME280;56232;53.384;-2.732;2023-02-28T02:05:40;103232.19;;;5.38;40.02
69219;BME280;56232;53.384;-2.732;2023-02-28T02:08:08;103229.91;;;5.51;40.03
69219;BME280;56232;53.384;-2.732;2023-02-28T02:10:35;103226.26;;;5.09;39.77
69219;BME280;56232;53.384;-2.732;2023-02-28T02:13:07;103225.41;;;5.61;39.35
69219;BME280;56232;53.384;-2.732;2023-02-28T02:15:25;103228.01;;;5.47;39.65
69219;BME280;56232;53.384;-2.732;2023-02-28T02:17:50;103229.90;;;5.43;39.66
69219;BME280;56232;53.384;-2.732;2023-02-28T02:20:30;103227.63;;;5.36;39.72
69219;BME280;56232;53.384;-2.732;2023-02-28T02:25:12;103231.10;;;5.21;39.89
69219;BME280;56232;53.384;-2.732;2023-02-28T02:27:45;103233.24;;;5.19;39.88
69219;BME280;56232;53.384;-2.732;2023-02-28T02:34:55;103234.58;;;5.01;39.78
69219;BME280;56232;53.384;-2.732;2023-02-28T02:37:24;103230.91;;;4.96;39.79
69219;BME280;56232;53.384;-2.732;2023-02-28T02:39:47;103229.19;;;5.01;39.70
69219;BME280;56232;53.384;-2.732;2023-02-28T02:42:12;103227.33;;;5.50;39.84
69219;BME280;56232;53.384;-2.732;2023-02-28T02:44:37;103227.22;;;4.48;39.87
69219;BME280;56232;53.384;-2.732;2023-02-28T02:47:02;103226.83;;;5.72;39.68
69219;BME280;56232;53.384;-2.732;2023-02-28T02:49:26;103228.54;;;5.35;39.29
69219;BME280;56232;53.384;-2.732;2023-02-28T02:51:49;103229.06;;;4.73;39.53
69219;BME280;56232;53.384;-2.732;2023-02-28T02:54:17;103230.95;;;5.54;39.55
69219;BME280;56232;53.384;-2.732;2023-02-28T02:56:42;103228.93;;;5.04;39.19
69219;BME280;56232;53.384;-2.732;2023-02-28T02:59:09;103232.15;;;4.90;39.32
69219;BME280;56232;53.384;-2.732;2023-02-28T03:01:33;103231.18;;;5.28;39.49
69219;BME280;56232;53.384;-2.732;2023-02-28T03:04:02;103230.01;;;5.19;39.53
69219;BME280;56232;53.384;-2.732;2023-02-28T03:06:24;103227.18;;;5.21;39.57
69219;BME280;56232;53.384;-2.732;2023-02-28T03:08:49;103226.18;;;5.26;39.54
69219;BME280;56232;53.384;-2.732;2023-02-28T03:11:15;103229.61;;;4.51;39.79
69219;BME280;56232;53.384;-2.732;2023-02-28T03:13:51;103224.46;;;4.97;39.89
69219;BME280;56232;53.384;-2.732;2023-02-28T03:18:39;103221.39;;;4.95;39.57
69219;BME280;56232;53.384;-2.732;2023-02-28T03:21:06;103220.06;;;5.76;39.61
69219;BME280;56232;53.384;-2.732;2023-02-28T03:23:29;103222.56;;;4.32;39.75
69219;BME280;56232;53.384;-2.732;2023-02-28T03:25:57;103221.35;;;3.89;39.97
69219;BME280;56232;53.384;-2.732;2023-02-28T03:28:18;103228.02;;;3.48;40.26
69219;BME280;56232;53.384;-2.732;2023-02-28T03:30:47;103229.13;;;3.64;40.53
69219;BME280;56232;53.384;-2.732;2023-02-28T03:33:10;103229.24;;;4.11;40.65
69219;BME280;56232;53.384;-2.732;2023-02-28T03:35:34;103233.19;;;3.91;40.80
69219;BME280;56232;53.384;-2.732;2023-02-28T03:38:04;103232.83;;;3.74;40.83
69219;BME280;56232;53.384;-2.732;2023-02-28T03:40:27;103231.74;;;3.56;40.96
69219;BME280;56232;53.384;-2.732;2023-02-28T03:42:53;103230.92;;;3.56;41.10
69219;BME280;56232;53.384;-2.732;2023-02-28T03:45:17;103227.50;;;3.44;40.95
69219;BME280;56232;53.384;-2.732;2023-02-28T03:47:45;103224.30;;;4.30;41.10
69219;BME280;56232;53.384;-2.732;2023-02-28T03:50:10;103222.09;;;3.72;40.99
69219;BME280;56232;53.384;-2.732;2023-02-28T03:52:35;103217.00;;;3.13;41.02
69219;BME280;56232;53.384;-2.732;2023-02-28T03:55:00;103215.80;;;3.09;41.06
69219;BME280;56232;53.384;-2.732;2023-02-28T03:57:31;103219.56;;;4.04;41.00
69219;BME280;56232;53.384;-2.732;2023-02-28T03:59:55;103221.18;;;4.21;40.85
69219;BME280;56232;53.384;-2.732;2023-02-28T04:02:14;103223.85;;;3.15;41.06
69219;BME280;56232;53.384;-2.732;2023-02-28T04:04:40;103223.59;;;3.24;40.98
69219;BME280;56232;53.384;-2.732;2023-02-28T04:07:07;103223.48;;;4.04;40.83
69219;BME280;56232;53.384;-2.732;2023-02-28T04:09:31;103216.26;;;3.71;40.50
69219;BME280;56232;53.384;-2.732;2023-02-28T04:11:58;103214.01;;;3.90;40.43
69219;BME280;56232;53.384;-2.732;2023-02-28T04:14:23;103219.08;;;3.40;40.62
69219;BME280;56232;53.384;-2.732;2023-02-28T04:16:48;103216.95;;;4.18;40.26
69219;BME280;56232;53.384;-2.732;2023-02-28T04:19:14;103215.22;;;4.24;40.11
69219;BME280;56232;53.384;-2.732;2023-02-28T04:21:41;103215.17;;;4.27;39.88
69219;BME280;56232;53.384;-2.732;2023-02-28T04:24:07;103218.47;;;4.32;40.20
69219;BME280;56232;53.384;-2.732;2023-02-28T04:26:33;103218.56;;;4.24;39.95
69219;BME280;56232;53.384;-2.732;2023-02-28T04:28:59;103217.44;;;4.18;39.97
69219;BME280;56232;53.384;-2.732;2023-02-28T04:31:23;103220.74;;;4.08;40.20
69219;BME280;56232;53.384;-2.732;2023-02-28T04:33:49;103220.00;;;4.07;40.03
69219;BME280;56232;53.384;-2.732;2023-02-28T04:36:15;103220.35;;;3.99;40.02
69219;BME280;56232;53.384;-2.732;2023-02-28T04:38:40;103227.83;;;3.76;40.16
69219;BME280;56232;53.384;-2.732;2023-02-28T04:41:06;103231.15;;;3.59;40.11
69219;BME280;56232;53.384;-2.732;2023-02-28T04:43:32;103237.87;;;3.38;40.26
69219;BME280;56232;53.384;-2.732;2023-02-28T04:46:01;103233.74;;;3.29;40.38
69219;BME280;56232;53.384;-2.732;2023-02-28T04:48:23;103235.94;;;3.41;40.38
69219;BME280;56232;53.384;-2.732;2023-02-28T04:50:48;103237.05;;;4.07;40.26
69219;BME280;56232;53.384;-2.732;2023-02-28T04:53:14;103235.46;;;4.12;40.31
69219;BME280;56232;53.384;-2.732;2023-02-28T04:55:40;103233.43;;;3.76;40.24
69219;BME280;56232;53.384;-2.732;2023-02-28T04:58:06;103233.16;;;3.95;40.11
69219;BME280;56232;53.384;-2.732;2023-02-28T05:05:22;103231.19;;;3.71;39.42
69219;BME280;56232;53.384;-2.732;2023-02-28T05:07:48;103230.54;;;4.25;39.54
69219;BME280;56232;53.384;-2.732;2023-02-28T05:10:14;103230.13;;;4.85;39.41
69219;BME280;56232;53.384;-2.732;2023-02-28T05:12:40;103232.85;;;4.73;39.40
69219;BME280;56232;53.384;-2.732;2023-02-28T05:15:07;103231.48;;;3.64;39.12
69219;BME280;56232;53.384;-2.732;2023-02-28T05:17:30;103229.72;;;4.78;39.36
69219;BME280;56232;53.384;-2.732;2023-02-28T05:19:57;103233.07;;;4.29;39.39
69219;BME280;56232;53.384;-2.732;2023-02-28T05:22:22;103231.19;;;4.45;39.10
69219;BME280;56232;53.384;-2.732;2023-02-28T05:24:48;103232.59;;;4.45;38.99
69219;BME280;56232;53.384;-2.732;2023-02-28T05:27:14;103232.99;;;4.92;38.99
69219;BME280;56232;53.384;-2.732;2023-02-28T05:29:39;103231.81;;;3.85;39.06
69219;BME280;56232;53.384;-2.732;2023-02-28T05:32:05;103233.70;;;3.86;39.28
69219;BME280;56232;53.384;-2.732;2023-02-28T05:34:31;103235.07;;;4.50;38.87
69219;BME280;56232;53.384;-2.732;2023-02-28T05:36:57;103232.14;;;3.89;39.18
69219;BME280;56232;53.384;-2.732;2023-02-28T05:39:22;103233.62;;;4.90;39.77
69219;BME280;56232;53.384;-2.732;2023-02-28T05:41:48;103235.45;;;3.73;39.59
69219;BME280;56232;53.384;-2.732;2023-02-28T05:44:15;103238.23;;;3.52;39.70
69219;BME280;56232;53.384;-2.732;2023-02-28T05:46:40;103239.81;;;4.39;39.68
69219;BME280;56232;53.384;-2.732;2023-02-28T05:49:06;103240.25;;;4.12;40.15
69219;BME280;56232;53.384;-2.732;2023-02-28T05:51:31;103239.48;;;3.00;40.00
69219;BME280;56232;53.384;-2.732;2023-02-28T05:53:59;103241.29;;;4.11;40.11
69219;BME280;56232;53.384;-2.732;2023-02-28T05:56:23;103238.29;;;4.16;40.05
69219;BME280;56232;53.384;-2.732;2023-02-28T05:58:49;103240.28;;;4.43;40.09
69219;BME280;56232;53.384;-2.732;2023-02-28T06:01:21;103245.16;;;4.52;39.85
69219;BME280;56232;53.384;-2.732;2023-02-28T06:03:40;103246.40;;;4.04;39.62
69219;BME280;56232;53.384;-2.732;2023-02-28T06:06:06;103250.01;;;4.09;39.61
69219;BME280;56232;53.384;-2.732;2023-02-28T06:08:32;103249.15;;;3.57;39.80
69219;BME280;56232;53.384;-2.732;2023-02-28T06:10:58;103249.39;;;4.65;39.31
69219;BME280;56232;53.384;-2.732;2023-02-28T06:13:23;103252.21;;;4.42;39.88
69219;BME280;56232;53.384;-2.732;2023-02-28T06:15:49;103254.30;;;3.28;39.97
69219;BME280;56232;53.384;-2.732;2023-02-28T06:18:15;103251.26;;;4.41;40.16
69219;BME280;56232;53.384;-2.732;2023-02-28T06:20:40;103251.04;;;3.33;39.65
69219;BME280;56232;53.384;-2.732;2023-02-28T06:23:06;103252.37;;;3.44;39.85
69219;BME280;56232;53.384;-2.732;2023-02-28T06:25:31;103255.38;;;4.75;40.00
69219;BME280;56232;53.384;-2.732;2023-02-28T06:27:58;103259.75;;;4.84;39.99
69219;BME280;56232;53.384;-2.732;2023-02-28T06:30:23;103260.68;;;3.73;39.75
69219;BME280;56232;53.384;-2.732;2023-02-28T06:32:49;103261.78;;;4.83;39.35
69219;BME280;56232;53.384;-2.732;2023-02-28T06:35:14;103264.22;;;3.94;39.59
69219;BME280;56232;53.384;-2.732;2023-02-28T06:37:45;103269.17;;;4.42;39.75
69219;BME280;56232;53.384;-2.732;2023-02-28T06:40:07;103271.89;;;4.33;39.85
69219;BME280;56232;53.384;-2.732;2023-02-28T06:42:32;103272.89;;;4.29;39.71
69219;BME280;56232;53.384;-2.732;2023-02-28T06:44:58;103275.49;;;3.67;39.46
69219;BME280;56232;53.384;-2.732;2023-02-28T06:47:23;103281.21;;;4.15;39.60
69219;BME280;56232;53.384;-2.732;2023-02-28T06:49:48;103286.34;;;4.13;39.80
69219;BME280;56232;53.384;-2.732;2023-02-28T06:52:15;103285.07;;;4.32;39.67
69219;BME280;56232;53.384;-2.732;2023-02-28T06:54:39;103285.19;;;4.94;39.70
69219;BME280;56232;53.384;-2.732;2023-02-28T06:57:04;103285.27;;;3.88;39.56
69219;BME280;56232;53.384;-2.732;2023-02-28T06:59:30;103283.23;;;4.40;39.72
69219;BME280;56232;53.384;-2.732;2023-02-28T07:01:57;103287.49;;;3.76;39.81
69219;BME280;56232;53.384;-2.732;2023-02-28T07:04:22;103294.06;;;3.78;39.41
69219;BME280;56232;53.384;-2.732;2023-02-28T07:06:48;103295.47;;;4.42;39.60
69219;BME280;56232;53.384;-2.732;2023-02-28T07:09:14;103297.39;;;3.41;39.75
69219;BME280;56232;53.384;-2.732;2023-02-28T07:11:40;103293.68;;;3.98;39.84
69219;BME280;56232;53.384;-2.732;2023-02-28T07:14:05;103294.69;;;4.10;39.84
69219;BME280;56232;53.384;-2.732;2023-02-28T07:16:30;103294.47;;;4.22;39.66
69219;BME280;56232;53.384;-2.732;2023-02-28T07:18:58;103295.42;;;4.87;39.46
69219;BME280;56232;53.384;-2.732;2023-02-28T07:21:22;103293.30;;;4.45;39.31
69219;BME280;56232;53.384;-2.732;2023-02-28T07:23:48;103296.28;;;4.14;39.11
69219;BME280;56232;53.384;-2.732;2023-02-28T07:26:15;103298.82;;;4.23;38.85
69219;BME280;56232;53.384;-2.732;2023-02-28T07:28:40;103298.08;;;4.27;38.92
69219;BME280;56232;53.384;-2.732;2023-02-28T07:31:07;103295.28;;;5.56;38.75
69219;BME280;56232;53.384;-2.732;2023-02-28T07:33:31;103298.41;;;5.18;38.23
69219;BME280;56232;53.384;-2.732;2023-02-28T07:36:00;103299.60;;;4.81;38.71
69219;BME280;56232;53.384;-2.732;2023-02-28T07:38:23;103301.56;;;5.13;38.53
69219;BME280;56232;53.384;-2.732;2023-02-28T07:40:49;103304.23;;;4.67;38.43
69219;BME280;56232;53.384;-2.732;2023-02-28T07:43:14;103302.44;;;4.87;38.45
69219;BME280;56232;53.384;-2.732;2023-02-28T07:45:40;103301.25;;;4.63;38.15
69219;BME280;56232;53.384;-2.732;2023-02-28T07:48:07;103298.17;;;5.34;37.49
69219;BME280;56232;53.384;-2.732;2023-02-28T07:50:32;103297.83;;;5.37;37.94
69219;BME280;56232;53.384;-2.732;2023-02-28T07:52:59;103301.16;;;5.13;37.85
69219;BME280;56232;53.384;-2.732;2023-02-28T07:55:24;103300.46;;;5.94;37.71
69219;BME280;56232;53.384;-2.732;2023-02-28T07:57:50;103304.43;;;5.80;37.49
69219;BME280;56232;53.384;-2.732;2023-02-28T08:00:16;103306.68;;;6.00;37.31
69219;BME280;56232;53.384;-2.732;2023-02-28T08:02:41;103306.15;;;6.11;37.18
69219;BME280;56232;53.384;-2.732;2023-02-28T08:05:07;103301.49;;;5.87;37.32
69219;BME280;56232;53.384;-2.732;2023-02-28T08:07:32;103300.75;;;6.85;36.92
69219;BME280;56232;53.384;-2.732;2023-02-28T08:09:59;103302.66;;;6.64;36.98
69219;BME280;56232;53.384;-2.732;2023-02-28T08:12:24;103304.74;;;6.37;36.63
69219;BME280;56232;53.384;-2.732;2023-02-28T08:14:49;103302.98;;;6.63;36.52
69219;BME280;56232;53.384;-2.732;2023-02-28T08:17:15;103305.99;;;6.90;36.19
69219;BME280;56232;53.384;-2.732;2023-02-28T08:19:41;103305.73;;;8.37;36.46
69219;BME280;56232;53.384;-2.732;2023-02-28T08:22:07;103306.20;;;8.40;36.03
69219;BME280;56232;53.384;-2.732;2023-02-28T08:24:32;103302.21;;;8.15;35.60
69219;BME280;56232;53.384;-2.732;2023-02-28T08:26:59;103295.81;;;8.55;35.39
69219;BME280;56232;53.384;-2.732;2023-02-28T08:29:24;103300.92;;;7.94;35.24
69219;BME280;56232;53.384;-2.732;2023-02-28T08:31:50;103296.90;;;7.57;34.98
69219;BME280;56232;53.384;-2.732;2023-02-28T08:34:16;103298.19;;;8.29;35.07
69219;BME280;56232;53.384;-2.732;2023-02-28T08:36:41;103300.02;;;7.97;35.11
69219;BME280;56232;53.384;-2.732;2023-02-28T08:39:07;103300.52;;;8.40;34.95
69219;BME280;56232;53.384;-2.732;2023-02-28T08:41:33;103305.95;;;9.30;34.43
69219;BME280;56232;53.384;-2.732;2023-02-28T08:43:59;103306.82;;;8.77;34.30
69219;BME280;56232;53.384;-2.732;2023-02-28T08:46:24;103305.13;;;9.06;34.28
69219;BME280;56232;53.384;-2.732;2023-02-28T08:48:52;103304.17;;;8.40;34.47
69219;BME280;56232;53.384;-2.732;2023-02-28T08:51:18;103305.19;;;7.61;34.57
69219;BME280;56232;53.384;-2.732;2023-02-28T08:53:42;103298.31;;;10.12;34.28
69219;BME280;56232;53.384;-2.732;2023-02-28T08:56:09;103298.69;;;9.90;33.37
69219;BME280;56232;53.384;-2.732;2023-02-28T08:58:33;103299.96;;;9.58;32.87
69219;BME280;56232;53.384;-2.732;2023-02-28T09:01:00;103299.39;;;10.35;32.59
69219;BME280;56232;53.384;-2.732;2023-02-28T09:03:24;103300.95;;;9.31;32.86
69219;BME280;56232;53.384;-2.732;2023-02-28T09:05:55;103300.14;;;9.62;33.19
69219;BME280;56232;53.384;-2.732;2023-02-28T09:08:16;103301.54;;;9.25;33.88
69219;BME280;56232;53.384;-2.732;2023-02-28T09:10:41;103303.61;;;8.91;33.96
69219;BME280;56232;53.384;-2.732;2023-02-28T09:13:07;103298.39;;;9.29;34.29
69219;BME280;56232;53.384;-2.732;2023-02-28T09:15:33;103296.80;;;9.28;34.34
69219;BME280;56232;53.384;-2.732;2023-02-28T09:17:59;103297.78;;;9.27;34.60
69219;BME280;56232;53.384;-2.732;2023-02-28T09:20:24;103302.04;;;8.50;34.65
69219;BME280;56232;53.384;-2.732;2023-02-28T09:22:50;103305.82;;;8.60;34.67
69219;BME280;56232;53.384;-2.732;2023-02-28T09:25:16;103305.80;;;8.30;34.19
69219;BME280;56232;53.384;-2.732;2023-02-28T09:27:41;103309.73;;;8.94;33.88
69219;BME280;56232;53.384;-2.732;2023-02-28T09:30:08;103310.00;;;9.40;33.68
69219;BME280;56232;53.384;-2.732;2023-02-28T09:32:33;103307.41;;;9.27;33.35
69219;BME280;56232;53.384;-2.732;2023-02-28T09:34:59;103309.50;;;10.19;32.80
69219;BME280;56232;53.384;-2.732;2023-02-28T09:37:24;103312.68;;;10.74;32.64
69219;BME280;56232;53.384;-2.732;2023-02-28T09:39:50;103312.67;;;11.66;31.63
69219;BME280;56232;53.384;-2.732;2023-02-28T09:42:23;103317.69;;;13.06;30.68
69219;BME280;56232;53.384;-2.732;2023-02-28T09:44:44;103321.65;;;12.27;30.08
69219;BME280;56232;53.384;-2.732;2023-02-28T09:47:11;103318.96;;;11.88;30.29
69219;BME280;56232;53.384;-2.732;2023-02-28T09:49:38;103317.71;;;11.73;30.49
69219;BME280;56232;53.384;-2.732;2023-02-28T09:52:02;103316.77;;;11.38;30.15
69219;BME280;56232;53.384;-2.732;2023-02-28T09:54:28;103323.54;;;10.95;31.27
69219;BME280;56232;53.384;-2.732;2023-02-28T09:56:52;103325.46;;;11.27;31.64
69219;BME280;56232;53.384;-2.732;2023-02-28T09:59:24;103325.42;;;11.48;31.48
69219;BME280;56232;53.384;-2.732;2023-02-28T10:01:47;103324.37;;;11.98;31.32
69219;BME280;56232;53.384;-2.732;2023-02-28T10:04:14;103328.54;;;10.42;31.74
69219;BME280;56232;53.384;-2.732;2023-02-28T10:06:38;103331.43;;;10.48;32.13
69219;BME280;56232;53.384;-2.732;2023-02-28T10:09:02;103327.53;;;11.12;32.10
69219;BME280;56232;53.384;-2.732;2023-02-28T10:11:25;103327.47;;;11.03;32.25
69219;BME280;56232;53.384;-2.732;2023-02-28T10:13:53;103329.67;;;11.09;32.26
69219;BME280;56232;53.384;-2.732;2023-02-28T10:16:20;103331.61;;;10.55;32.03
69219;BME280;56232;53.384;-2.732;2023-02-28T10:18:44;103328.53;;;11.74;31.64
69219;BME280;56232;53.384;-2.732;2023-02-28T10:21:16;103329.06;;;11.45;31.47
69219;BME280;56232;53.384;-2.732;2023-02-28T10:23:35;103329.88;;;10.78;31.43
69219;BME280;56232;53.384;-2.732;2023-02-28T10:26:01;103332.71;;;11.43;31.86
69219;BME280;56232;53.384;-2.732;2023-02-28T10:28:25;103332.40;;;11.29;31.73
69219;BME280;56232;53.384;-2.732;2023-02-28T10:30:51;103328.64;;;11.11;32.03
69219;BME280;56232;53.384;-2.732;2023-02-28T10:33:20;103327.64;;;10.71;31.96
69219;BME280;56232;53.384;-2.732;2023-02-28T10:35:41;103327.88;;;10.73;31.90
69219;BME280;56232;53.384;-2.732;2023-02-28T10:38:16;103326.23;;;10.95;32.26
69219;BME280;56232;53.384;-2.732;2023-02-28T10:40:34;103328.18;;;11.84;32.28
69219;BME280;56232;53.384;-2.732;2023-02-28T10:43:00;103324.90;;;11.62;31.73
69219;BME280;56232;53.384;-2.732;2023-02-28T10:45:25;103320.40;;;11.43;31.96
69219;BME280;56232;53.384;-2.732;2023-02-28T10:47:53;103321.72;;;11.52;31.79
69219;BME280;56232;53.384;-2.732;2023-02-28T10:52:41;103322.24;;;11.34;31.49
69219;BME280;56232;53.384;-2.732;2023-02-28T10:55:14;103318.23;;;10.86;31.14
69219;BME280;56232;53.384;-2.732;2023-02-28T10:57:32;103318.85;;;10.83;31.64
69219;BME280;56232;53.384;-2.732;2023-02-28T11:00:11;103319.92;;;11.34;31.44
69219;BME280;56232;53.384;-2.732;2023-02-28T11:02:31;103320.40;;;11.07;32.29
69219;BME280;56232;53.384;-2.732;2023-02-28T11:04:49;103317.40;;;11.14;32.15
69219;BME280;56232;53.384;-2.732;2023-02-28T11:07:18;103315.84;;;11.27;32.35
69219;BME280;56232;53.384;-2.732;2023-02-28T11:09:41;103312.84;;;11.35;32.14
69219;BME280;56232;53.384;-2.732;2023-02-28T11:12:10;103311.72;;;11.73;32.19
69219;BME280;56232;53.384;-2.732;2023-02-28T11:14:36;103311.29;;;11.96;31.95
69219;BME280;56232;53.384;-2.732;2023-02-28T11:17:02;103307.41;;;11.64;32.02
69219;BME280;56232;53.384;-2.732;2023-02-28T11:19:25;103308.15;;;10.86;32.85
69219;BME280;56232;53.384;-2.732;2023-02-28T11:21:54;103310.74;;;11.74;33.09
69219;BME280;56232;53.384;-2.732;2023-02-28T11:24:20;103308.56;;;11.56;32.69
69219;BME280;56232;53.384;-2.732;2023-02-28T11:26:43;103306.09;;;11.40;32.85
69219;BME280;56232;53.384;-2.732;2023-02-28T11:29:17;103298.11;;;11.17;32.45
69219;BME280;56232;53.384;-2.732;2023-02-28T11:31:32;103298.95;;;11.85;32.68
69219;BME280;56232;53.384;-2.732;2023-02-28T11:34:00;103295.50;;;12.17;32.85
69219;BME280;56232;53.384;-2.732;2023-02-28T11:36:26;103292.62;;;11.85;31.99
69219;BME280;56232;53.384;-2.732;2023-02-28T11:38:49;103292.30;;;12.34;32.57
69219;BME280;56232;53.384;-2.732;2023-02-28T11:43:54;103288.98;;;11.58;33.45
69219;BME280;56232;53.384;-2.732;2023-02-28T11:46:15;103288.95;;;11.67;32.98
69219;BME280;56232;53.384;-2.732;2023-02-28T11:48:40;103291.84;;;11.20;33.93
69219;BME280;56232;53.384;-2.732;2023-02-28T11:51:05;103289.92;;;10.65;34.76
69219;BME280;56232;53.384;-2.732;2023-02-28T11:53:37;103288.40;;;10.43;35.09
69219;BME280;56232;53.384;-2.732;2023-02-28T11:55:53;103284.60;;;10.69;34.38
69219;BME280;56232;53.384;-2.732;2023-02-28T11:58:23;103282.16;;;11.22;34.84
69219;BME280;56232;53.384;-2.732;2023-02-28T12:00:50;103275.33;;;10.45;33.80
69219;BME280;56232;53.384;-2.732;2023-02-28T12:03:15;103272.61;;;11.07;34.80
69219;BME280;56232;53.384;-2.732;2023-02-28T12:05:35;103269.90;;;10.51;34.85
69219;BME280;56232;53.384;-2.732;2023-02-28T12:08:06;103267.14;;;9.92;34.62
69219;BME280;56232;53.384;-2.732;2023-02-28T12:10:25;103263.74;;;10.27;34.49
69219;BME280;56232;53.384;-2.732;2023-02-28T12:12:59;103263.80;;;10.32;34.47
69219;BME280;56232;53.384;-2.732;2023-02-28T12:15:24;103258.93;;;9.68;34.00
69219;BME280;56232;53.384;-2.732;2023-02-28T12:17:51;103256.07;;;10.06;34.37
69219;BME280;56232;53.384;-2.732;2023-02-28T12:20:16;103258.26;;;9.31;34.07
69219;BME280;56232;53.384;-2.732;2023-02-28T12:22:34;103263.38;;;9.64;34.83
69219;BME280;56232;53.384;-2.732;2023-02-28T12:27:27;103259.00;;;8.90;36.05
69219;BME280;56232;53.384;-2.732;2023-02-28T12:29:52;103256.19;;;9.92;36.06
69219;BME280;56232;53.384;-2.732;2023-02-28T12:32:18;103255.15;;;9.75;36.34
69219;BME280;56232;53.384;-2.732;2023-02-28T12:34:44;103251.49;;;8.86;36.08
69219;BME280;56232;53.384;-2.732;2023-02-28T12:37:10;103252.90;;;9.39;35.62
69219;BME280;56232;53.384;-2.732;2023-02-28T12:39:36;103253.84;;;8.33;34.61
69219;BME280;56232;53.384;-2.732;2023-02-28T12:42:01;103250.68;;;9.13;35.20
69219;BME280;56232;53.384;-2.732;2023-02-28T12:44:28;103248.53;;;8.96;35.51
69219;BME280;56232;53.384;-2.732;2023-02-28T12:46:51;103245.17;;;9.18;34.76
69219;BME280;56232;53.384;-2.732;2023-02-28T12:49:17;103242.91;;;9.65;35.35
69219;BME280;56232;53.384;-2.732;2023-02-28T12:51:41;103242.12;;;9.19;34.80
69219;BME280;56232;53.384;-2.732;2023-02-28T12:54:13;103242.57;;;9.78;35.59
69219;BME280;56232;53.384;-2.732;2023-02-28T12:56:38;103235.50;;;9.26;35.94
69219;BME280;56232;53.384;-2.732;2023-02-28T12:59:01;103238.46;;;9.42;34.63
69219;BME280;56232;53.384;-2.732;2023-02-28T13:01:37;103233.06;;;9.36;35.95